Time;durP1;ratioP1;P1;durP2;ratioP2;P2;SDS_P1;SDS_P2;PMS_P1;PMS_P2;Temp;Humidity;BMP_temperature;BMP_pressure;BME280_temperature;BME280_humidity;BME280_pressure;Samples;Min_cycle;Max_cycle;Signal;HPM_P1;HPM_P2
2021/07/12 00:04:58;;;;;;;8.10;6.40;;;;;;;19.73;76.20;100543.97;21863992;78;99526;-78
2021/07/12 00:34:59;;;;;;;9.23;5.67;;;;;;;19.83;76.96;100523.38;21769233;79;110282;-76
2021/07/12 01:05:03;;;;;;;10.65;5.92;;;;;;;19.84;78.56;100522.91;21889422;79;170701;-77
2021/07/12 01:35:28;;;;;;;9.45;5.47;;;;;;;19.97;80.15;100517.41;21828457;79;99610;-76
2021/07/12 02:05:32;;;;;;;10.43;6.12;;;;;;;19.96;79.16;100489.30;21873009;79;102096;-76
2021/07/12 02:35:34;;;;;;;11.30;5.87;;;;;;;19.98;79.21;100455.52;21800319;79;99868;-77
2021/07/12 03:05:36;;;;;;;9.70;5.83;;;;;;;19.69;80.00;100449.11;21782270;79;99781;-76
2021/07/12 03:35:44;;;;;;;8.75;5.53;;;;;;;19.58;81.55;100443.02;21844533;79;107170;-76
2021/07/12 04:05:45;;;;;;;9.78;6.50;;;;;;;19.65;81.69;100437.84;21892123;79;108152;-77
2021/07/12 04:35:46;;;;;;;11.30;6.63;;;;;;;19.83;82.26;100454.94;21850845;79;145383;-77
2021/07/12 05:05:48;;;;;;;11.60;7.87;;;;;;;20.16;83.82;100418.75;21839399;79;171229;-76
2021/07/12 05:35:49;;;;;;;12.25;8.38;;;;;;;20.23;84.62;100404.56;21883997;79;110222;-77
2021/07/12 06:05:51;;;;;;;10.25;7.85;;;;;;;21.80;82.49;100408.59;21932699;79;129971;-76
2021/07/12 06:35:52;;;;;;;9.93;7.77;;;;;;;24.37;75.36;100401.38;21967812;79;111614;-76
2021/07/12 07:05:55;;;;;;;13.20;6.95;;;;;;;24.41;72.16;100404.79;22091283;79;101035;-75
2021/07/12 07:35:58;;;;;;;7.83;4.62;;;;;;;25.08;70.71;100415.73;22168050;79;129013;-75
2021/07/12 08:05:59;;;;;;;;;;;;;;;26.91;64.27;100454.36;22053907;79;99414;-75
2021/07/12 08:36:00;;;;;;;8.58;4.67;;;;;;;27.31;57.42;100430.50;21967847;79;128211;-75
2021/07/12 09:06:25;;;;;;;8.48;5.60;;;;;;;27.30;59.14;100421.88;21865469;79;108758;-75
2021/07/12 09:36:29;;;;;;;9.13;6.33;;;;;;;28.59;55.68;100401.89;21878065;79;105946;-80
2021/07/12 10:06:32;;;;;;;9.53;6.62;;;;;;;30.69;52.60;100368.48;21942630;79;136479;-75
2021/07/12 10:36:41;;;;;;;10.93;7.03;;;;;;;33.36;47.64;100366.13;22053965;78;106607;-79
2021/07/12 11:06:57;;;;;;;10.15;7.40;;;;;;;32.58;46.67;100382.33;21891454;78;100821;-79
2021/07/12 11:37:11;;;;;;;12.40;7.95;;;;;;;29.71;55.06;100331.45;21989979;79;123134;-76
2021/07/12 12:07:32;;;;;;;6.33;4.40;;;;;;;28.17;62.15;100335.95;22079672;79;99981;-76
2021/07/12 12:37:40;;;;;;;8.75;5.62;;;;;;;27.54;55.04;100304.52;22127730;79;103680;-76
2021/07/12 13:07:54;;;;;;;12.73;6.72;;;;;;;27.31;57.51;100256.67;22111974;79;161888;-76
2021/07/12 13:37:59;;;;;;;7.25;4.10;;;;;;;28.60;55.16;100192.48;21481229;78;107495;-96
2021/07/12 14:08:01;;;;;;;6.60;3.67;;;;;;;30.20;50.62;100222.16;21129540;81;99449;-91
2021/07/12 14:38:02;;;;;;;6.65;4.35;;;;;;;30.76;47.81;100181.83;20809470;82;99697;-89
2021/07/12 15:08:04;;;;;;;4.35;2.85;;;;;;;30.66;46.65;100168.41;20626552;83;99694;-93
2021/07/12 15:38:05;;;;;;;6.62;3.45;;;;;;;28.21;52.50;100192.80;20621572;83;99160;-92
2021/07/12 16:08:06;;;;;;;6.45;3.55;;;;;;;27.94;52.94;100206.87;20611166;82;99323;-88
2021/07/12 16:38:06;;;;;;;8.20;4.53;;;;;;;28.04;53.56;100139.55;20630002;83;99357;-87
2021/07/12 17:08:07;;;;;;;9.30;6.50;;;;;;;28.15;53.65;100087.28;20666093;83;99807;-94
2021/07/12 17:38:08;;;;;;;8.15;5.72;;;;;;;27.42;57.11;100102.13;20690704;83;2169843;-96
2021/07/12 18:08:09;;;;;;;5.90;3.72;;;;;;;26.72;59.68;100107.09;20781004;83;100612;-92
2021/07/12 18:38:11;;;;;;;5.95;2.85;;;;;;;26.72;57.01;100097.99;20862700;82;100533;-94
2021/07/12 19:08:12;;;;;;;8.85;3.33;;;;;;;25.55;56.66;100121.31;20999734;82;100298;-94
2021/07/12 19:38:14;;;;;;;6.75;4.20;;;;;;;23.92;61.25;100143.41;21054716;82;100239;-94
2021/07/12 20:08:16;;;;;;;8.87;4.50;;;;;;;23.29;63.52;100163.97;21143054;82;100270;-91
2021/07/12 20:38:18;;;;;;;10.68;5.17;;;;;;;22.59;65.61;100175.44;21127197;81;99772;-92
2021/07/12 21:08:19;;;;;;;9.43;5.33;;;;;;;21.94;67.74;100185.28;21145537;82;99807;-94
2021/07/12 21:38:21;;;;;;;9.03;5.40;;;;;;;21.43;70.14;100179.82;21173378;82;99234;-96
2021/07/12 22:08:23;;;;;;;13.17;6.83;;;;;;;20.79;72.16;100181.89;21175716;82;1925006;-95
2021/07/12 22:38:25;;;;;;;13.43;10.27;;;;;;;20.32;74.06;100187.46;21145515;82;199909;-95
2021/07/12 23:08:28;;;;;;;13.80;10.65;;;;;;;19.90;78.21;100191.55;21150699;80;155825;-96
2021/07/12 23:38:29;;;;;;;17.40;12.33;;;;;;;19.57;79.50;100176.83;21179324;82;166078;-96
